Chhatrapati Shivaji International Airport

VABB | BOM

Mumbai , Maharashtra , India

Thursday, October 24th, 2019 | 10:40

Weather

VABB 240500Z 08005KT 3500 HZ FEW025 SCT100 29/24 Q1007 NOSIG

Charts

No Charts Available

Gates

170 Available

Runways

2 Available

Events

No events for this airport


New event